Time;durP1;ratioP1;P1;durP2;ratioP2;P2;SDS_P1;SDS_P2;PMS_P1;PMS_P2;Temp;Humidity;BMP_temperature;BMP_pressure;BME280_temperature;BME280_humidity;BME280_pressure;Samples;Min_cycle;Max_cycle;Signal;HPM_P1;HPM_P2
2022/11/23 00:01:07;;;;;;;;;;;23.00;38.50;;;;;;484341;246;1244;-45
2022/11/23 00:03:09;;;;;;;;;;;23.10;38.60;;;;;;484506;246;1282;-40
2022/11/23 00:05:11;;;;;;;;;;;23.10;38.50;;;;;;484497;246;2031;-44
2022/11/23 00:07:12;;;;;;;;;;;23.10;38.50;;;;;;484779;242;1423;-44
2022/11/23 00:09:14;;;;;;;;;;;23.10;38.50;;;;;;484425;246;1201;-42
2022/11/23 00:11:15;;;;;;;;;;;23.10;38.50;;;;;;484413;246;1365;-44
2022/11/23 00:13:17;;;;;;;;;;;23.10;38.50;;;;;;484398;246;1225;-44
2022/11/23 00:15:18;;;;;;;;;;;23.10;38.50;;;;;;484683;246;1429;-44
2022/11/23 00:17:19;;;;;;;;;;;23.10;38.40;;;;;;484808;246;1128;-41
2022/11/23 00:19:21;;;;;;;;;;;23.10;38.40;;;;;;484795;246;2191;-41
2022/11/23 00:21:23;;;;;;;;;;;23.10;38.40;;;;;;484772;246;1442;-45
2022/11/23 00:23:25;;;;;;;;;;;23.20;38.50;;;;;;484357;246;1318;-45
2022/11/23 00:25:28;;;;;;;;;;;23.10;38.40;;;;;;484387;242;1278;-41
2022/11/23 00:27:32;;;;;;;;;;;23.20;38.40;;;;;;484624;246;1792;-41
2022/11/23 00:29:33;;;;;;;;;;;23.20;38.40;;;;;;484433;246;1398;-43
2022/11/23 00:31:35;;;;;;;;;;;23.20;38.40;;;;;;484307;246;3561;-42
2022/11/23 00:33:36;;;;;;;;;;;23.20;38.40;;;;;;484347;246;1303;-41
2022/11/23 00:35:38;;;;;;;;;;;23.20;38.30;;;;;;484338;246;1281;-44
2022/11/23 00:37:39;;;;;;;;;;;23.20;38.40;;;;;;484600;246;1289;-42
2022/11/23 00:39:40;;;;;;;;;;;23.20;38.40;;;;;;484288;246;2222;-42
2022/11/23 00:41:42;;;;;;;;;;;23.20;38.40;;;;;;484297;246;1524;-43
2022/11/23 00:43:43;;;;;;;;;;;23.20;38.50;;;;;;484398;246;1870;-43
2022/11/23 00:45:44;;;;;;;;;;;23.10;38.60;;;;;;484323;246;1171;-45
2022/11/23 00:47:46;;;;;;;;;;;22.90;38.90;;;;;;484295;246;1468;-42
2022/11/23 00:49:47;;;;;;;;;;;22.70;39.30;;;;;;484605;246;1711;-44
2022/11/23 00:51:49;;;;;;;;;;;22.60;39.60;;;;;;484674;246;1410;-41
2022/11/23 00:53:50;;;;;;;;;;;22.50;39.80;;;;;;484254;246;1325;-43
2022/11/23 00:55:52;;;;;;;;;;;22.30;40.00;;;;;;484690;246;1682;-41
2022/11/23 00:57:53;;;;;;;;;;;22.30;40.20;;;;;;484453;246;1253;-43
2022/11/23 00:59:55;;;;;;;;;;;22.20;40.30;;;;;;484286;246;2191;-43
2022/11/23 01:01:56;;;;;;;;;;;22.10;40.40;;;;;;484373;246;1262;-43
2022/11/23 01:03:57;;;;;;;;;;;22.10;40.60;;;;;;483924;242;1410;-44
2022/11/23 01:05:59;;;;;;;;;;;22.10;40.50;;;;;;484353;246;1385;-44
2022/11/23 01:08:00;;;;;;;;;;;22.00;40.60;;;;;;484328;246;1538;-44
2022/11/23 01:10:01;;;;;;;;;;;22.00;40.70;;;;;;484591;246;1204;-43
2022/11/23 01:12:06;;;;;;;;;;;22.00;40.80;;;;;;484407;246;1279;-41
2022/11/23 01:14:08;;;;;;;;;;;21.90;40.90;;;;;;484312;246;1249;-41
2022/11/23 01:16:09;;;;;;;;;;;21.90;40.90;;;;;;484419;246;1255;-44
2022/11/23 01:18:10;;;;;;;;;;;21.90;40.90;;;;;;484336;246;1217;-43
2022/11/23 01:20:11;;;;;;;;;;;21.90;41.00;;;;;;484325;246;2485;-44
2022/11/23 01:22:13;;;;;;;;;;;21.80;41.00;;;;;;484656;246;1245;-41
2022/11/23 01:24:15;;;;;;;;;;;21.80;41.00;;;;;;484175;246;2335;-41
2022/11/23 01:26:16;;;;;;;;;;;21.80;41.10;;;;;;484430;243;1280;-44
2022/11/23 01:28:18;;;;;;;;;;;21.80;41.10;;;;;;484261;246;1636;-44
2022/11/23 01:30:19;;;;;;;;;;;21.70;41.20;;;;;;484446;246;1266;-44
2022/11/23 01:32:20;;;;;;;;;;;21.80;41.20;;;;;;484227;246;1217;-43
2022/11/23 01:34:22;;;;;;;;;;;21.80;41.20;;;;;;484534;246;1285;-43
2022/11/23 01:36:23;;;;;;;;;;;21.70;41.20;;;;;;484238;246;1355;-44
2022/11/23 01:38:24;;;;;;;;;;;21.70;41.30;;;;;;484259;246;1345;-40
2022/11/23 01:40:29;;;;;;;;;;;21.70;41.20;;;;;;484217;246;2164;-44
2022/11/23 01:42:30;;;;;;;;;;;21.70;41.30;;;;;;484252;246;1326;-44
2022/11/23 01:44:32;;;;;;;;;;;21.70;41.40;;;;;;484241;246;1786;-41
2022/11/23 01:46:33;;;;;;;;;;;21.70;41.40;;;;;;484210;246;1312;-41
2022/11/23 01:48:35;;;;;;;;;;;21.60;41.30;;;;;;484262;246;1769;-43
2022/11/23 01:50:37;;;;;;;;;;;21.60;41.30;;;;;;484283;246;1357;-41
2022/11/23 01:52:38;;;;;;;;;;;21.60;41.40;;;;;;484351;246;1382;-42
2022/11/23 01:54:40;;;;;;;;;;;21.60;41.40;;;;;;484787;246;1289;-42
2022/11/23 01:56:41;;;;;;;;;;;21.60;41.50;;;;;;484353;246;1395;-44
2022/11/23 01:58:43;;;;;;;;;;;21.60;41.50;;;;;;484337;246;1265;-43
2022/11/23 02:00:44;;;;;;;;;;;21.60;41.50;;;;;;484292;246;2204;-44
2022/11/23 02:02:45;;;;;;;;;;;21.60;41.50;;;;;;484416;246;1302;-44
2022/11/23 02:04:47;;;;;;;;;;;21.60;41.50;;;;;;484772;246;1412;-44
2022/11/23 02:06:48;;;;;;;;;;;21.50;41.50;;;;;;484532;246;1196;-41
2022/11/23 02:08:50;;;;;;;;;;;21.50;41.50;;;;;;484657;246;1271;-45
2022/11/23 02:10:51;;;;;;;;;;;21.50;41.50;;;;;;484412;246;1138;-44
2022/11/23 02:12:53;;;;;;;;;;;21.50;41.50;;;;;;484379;246;1193;-44
2022/11/23 02:14:55;;;;;;;;;;;21.50;41.60;;;;;;484472;246;1108;-44
2022/11/23 02:16:56;;;;;;;;;;;21.50;41.50;;;;;;484502;246;1165;-43
2022/11/23 02:18:58;;;;;;;;;;;21.50;41.50;;;;;;484393;246;1178;-44
2022/11/23 02:20:59;;;;;;;;;;;21.60;41.60;;;;;;484762;246;2139;-43
2022/11/23 02:23:02;;;;;;;;;;;21.50;41.60;;;;;;484890;246;1409;-44
2022/11/23 02:25:04;;;;;;;;;;;21.50;41.60;;;;;;484607;246;1485;-44
2022/11/23 02:27:06;;;;;;;;;;;21.50;41.60;;;;;;484701;246;1307;-43
2022/11/23 02:29:07;;;;;;;;;;;21.50;41.70;;;;;;484386;246;2006;-44
2022/11/23 02:31:08;;;;;;;;;;;21.50;41.70;;;;;;484625;246;1329;-43
2022/11/23 02:33:10;;;;;;;;;;;21.50;41.60;;;;;;484320;246;1565;-44
2022/11/23 02:35:11;;;;;;;;;;;21.50;41.60;;;;;;484296;246;1696;-44
2022/11/23 02:37:13;;;;;;;;;;;21.50;41.60;;;;;;484493;246;1516;-42
2022/11/23 02:39:14;;;;;;;;;;;21.60;41.40;;;;;;484302;246;1676;-44
2022/11/23 02:41:16;;;;;;;;;;;21.80;41.00;;;;;;484390;246;2204;-44
2022/11/23 02:43:17;;;;;;;;;;;22.00;40.80;;;;;;484667;246;1388;-41
2022/11/23 02:45:22;;;;;;;;;;;22.10;40.50;;;;;;484921;246;1242;-43
2022/11/23 02:47:24;;;;;;;;;;;22.10;40.40;;;;;;484735;246;1713;-44
2022/11/23 02:49:27;;;;;;;;;;;22.10;40.30;;;;;;484536;242;1287;-44
2022/11/23 02:51:28;;;;;;;;;;;22.10;40.40;;;;;;484424;246;1240;-43
2022/11/23 02:53:29;;;;;;;;;;;22.00;40.70;;;;;;484518;246;1221;-44
2022/11/23 02:55:31;;;;;;;;;;;21.90;40.90;;;;;;484466;246;1835;-44
2022/11/23 02:57:33;;;;;;;;;;;21.80;41.00;;;;;;484536;246;1256;-44
2022/11/23 02:59:35;;;;;;;;;;;21.70;41.10;;;;;;484641;246;2203;-44
2022/11/23 03:01:36;;;;;;;;;;;21.70;41.20;;;;;;484484;246;1242;-43
2022/11/23 03:03:37;;;;;;;;;;;21.60;41.20;;;;;;484406;246;1256;-41
2022/11/23 03:05:39;;;;;;;;;;;21.60;41.30;;;;;;484629;246;1351;-44
2022/11/23 03:07:40;;;;;;;;;;;21.60;41.30;;;;;;484339;246;1413;-41
2022/11/23 03:09:41;;;;;;;;;;;21.60;41.40;;;;;;484642;246;1395;-44
2022/11/23 03:11:43;;;;;;;;;;;21.50;41.40;;;;;;484346;246;1505;-44
2022/11/23 03:13:44;;;;;;;;;;;21.50;41.40;;;;;;484320;246;1222;-44
2022/11/23 03:15:45;;;;;;;;;;;21.60;41.50;;;;;;484449;246;1460;-44
2022/11/23 03:17:47;;;;;;;;;;;21.50;41.50;;;;;;484474;246;1513;-44
2022/11/23 03:19:48;;;;;;;;;;;21.50;41.50;;;;;;484386;242;2200;-43
2022/11/23 03:21:50;;;;;;;;;;;21.50;41.50;;;;;;484400;246;1242;-44
2022/11/23 03:23:51;;;;;;;;;;;21.50;41.50;;;;;;484746;246;1195;-41
2022/11/23 03:25:53;;;;;;;;;;;21.50;41.50;;;;;;484573;246;1119;-44
2022/11/23 03:27:55;;;;;;;;;;;21.50;41.50;;;;;;484744;246;1267;-44
2022/11/23 03:29:56;;;;;;;;;;;21.50;41.50;;;;;;484447;246;1758;-43
2022/11/23 03:31:57;;;;;;;;;;;21.50;41.50;;;;;;484655;246;1212;-44
2022/11/23 03:33:59;;;;;;;;;;;21.50;41.50;;;;;;484347;246;1271;-43
2022/11/23 03:36:00;;;;;;;;;;;21.50;41.60;;;;;;484624;246;1578;-44
2022/11/23 03:38:01;;;;;;;;;;;21.40;41.50;;;;;;484780;246;1368;-41
2022/11/23 03:40:03;;;;;;;;;;;21.50;41.60;;;;;;484546;246;2191;-44
2022/11/23 03:42:04;;;;;;;;;;;21.50;41.60;;;;;;484436;246;1258;-44
2022/11/23 03:44:06;;;;;;;;;;;21.50;41.60;;;;;;484472;246;1250;-45
2022/11/23 03:46:07;;;;;;;;;;;21.50;41.50;;;;;;484246;246;1585;-44
2022/11/23 03:48:09;;;;;;;;;;;21.70;41.30;;;;;;484505;246;1674;-44
2022/11/23 03:50:10;;;;;;;;;;;21.80;40.90;;;;;;484740;246;1289;-43
2022/11/23 03:52:12;;;;;;;;;;;22.00;40.60;;;;;;484384;246;3591;-44
2022/11/23 03:54:13;;;;;;;;;;;22.10;40.40;;;;;;484511;246;1246;-42
2022/11/23 03:56:15;;;;;;;;;;;22.10;40.30;;;;;;484641;246;1921;-42
2022/11/23 03:58:16;;;;;;;;;;;22.20;40.30;;;;;;484354;246;1408;-43
2022/11/23 04:00:17;;;;;;;;;;;22.10;40.30;;;;;;484555;246;2195;-41
2022/11/23 04:02:19;;;;;;;;;;;22.00;40.60;;;;;;484559;246;1478;-42
2022/11/23 04:04:20;;;;;;;;;;;21.90;40.80;;;;;;484281;246;1332;-44
2022/11/23 04:06:22;;;;;;;;;;;21.80;41.00;;;;;;484312;246;1391;-44
2022/11/23 04:08:23;;;;;;;;;;;21.70;41.10;;;;;;484573;246;1345;-44
2022/11/23 04:10:25;;;;;;;;;;;21.70;41.10;;;;;;484440;246;2015;-45
2022/11/23 04:12:26;;;;;;;;;;;21.70;41.20;;;;;;484408;246;1690;-44
2022/11/23 04:14:29;;;;;;;;;;;21.60;41.20;;;;;;484333;246;1664;-42
2022/11/23 04:16:31;;;;;;;;;;;21.60;41.30;;;;;;484364;246;1280;-44
2022/11/23 04:18:32;;;;;;;;;;;21.60;41.40;;;;;;484347;246;1260;-41
2022/11/23 04:20:34;;;;;;;;;;;21.50;41.40;;;;;;484396;246;2195;-41
2022/11/23 04:22:35;;;;;;;;;;;21.60;41.40;;;;;;484258;246;1883;-43
2022/11/23 04:24:36;;;;;;;;;;;21.50;41.30;;;;;;484303;246;1333;-44
2022/11/23 04:26:39;;;;;;;;;;;21.60;41.50;;;;;;484508;246;1310;-44
2022/11/23 04:28:39;;;;;;;;;;;21.50;41.40;;;;;;484249;246;1941;-44
2022/11/23 04:30:41;;;;;;;;;;;21.50;41.40;;;;;;484447;242;1457;-44
2022/11/23 04:32:42;;;;;;;;;;;21.50;41.50;;;;;;484770;246;1225;-44
2022/11/23 04:34:43;;;;;;;;;;;21.50;41.50;;;;;;484195;246;2353;-44
2022/11/23 04:36:45;;;;;;;;;;;21.50;41.50;;;;;;484397;246;1216;-43
2022/11/23 04:38:47;;;;;;;;;;;21.50;41.50;;;;;;484583;246;1579;-42
2022/11/23 04:40:48;;;;;;;;;;;21.50;41.50;;;;;;484604;246;2152;-44
2022/11/23 04:42:50;;;;;;;;;;;21.50;41.60;;;;;;484333;246;1245;-44
2022/11/23 04:44:51;;;;;;;;;;;21.40;41.60;;;;;;484599;246;1702;-44
2022/11/23 04:46:52;;;;;;;;;;;21.50;41.60;;;;;;484325;246;1691;-44
2022/11/23 04:48:54;;;;;;;;;;;21.40;41.60;;;;;;484402;246;1520;-44
2022/11/23 04:50:55;;;;;;;;;;;21.40;41.60;;;;;;484353;246;1198;-44
2022/11/23 04:52:56;;;;;;;;;;;21.40;41.70;;;;;;484289;246;1348;-41
2022/11/23 04:54:58;;;;;;;;;;;21.40;41.60;;;;;;484392;246;1430;-44
2022/11/23 04:56:59;;;;;;;;;;;21.40;41.60;;;;;;484424;246;1252;-44
2022/11/23 04:59:01;;;;;;;;;;;21.40;41.60;;;;;;484255;246;1241;-44
2022/11/23 05:01:02;;;;;;;;;;;21.40;41.60;;;;;;484306;246;2196;-44
2022/11/23 05:03:03;;;;;;;;;;;21.40;41.60;;;;;;484368;246;1269;-44
2022/11/23 05:05:05;;;;;;;;;;;21.40;41.60;;;;;;484386;246;1273;-43
2022/11/23 05:07:06;;;;;;;;;;;21.40;41.60;;;;;;484354;246;1346;-44
2022/11/23 05:09:07;;;;;;;;;;;21.40;41.70;;;;;;484434;246;1205;-41
2022/11/23 05:11:09;;;;;;;;;;;21.40;41.60;;;;;;484319;246;1489;-41
2022/11/23 05:13:10;;;;;;;;;;;21.40;41.70;;;;;;484767;246;1124;-44
2022/11/23 05:15:11;;;;;;;;;;;21.40;41.60;;;;;;484559;246;1042;-44
2022/11/23 05:17:13;;;;;;;;;;;21.60;41.30;;;;;;484489;246;1626;-45
2022/11/23 05:19:15;;;;;;;;;;;21.80;41.00;;;;;;484335;246;1155;-45
2022/11/23 05:21:16;;;;;;;;;;;22.00;40.70;;;;;;484589;246;2144;-44
2022/11/23 05:23:19;;;;;;;;;;;22.10;40.40;;;;;;484442;246;1318;-44
2022/11/23 05:25:20;;;;;;;;;;;22.20;40.10;;;;;;484368;246;1493;-44
2022/11/23 05:27:22;;;;;;;;;;;22.20;40.10;;;;;;484271;246;2820;-44
2022/11/23 05:29:23;;;;;;;;;;;22.20;40.10;;;;;;484425;246;1337;-41
2022/11/23 05:31:25;;;;;;;;;;;22.10;40.20;;;;;;484209;246;1560;-44
2022/11/23 05:33:26;;;;;;;;;;;22.00;40.50;;;;;;484294;246;1449;-44
2022/11/23 05:35:27;;;;;;;;;;;21.90;40.70;;;;;;484133;246;1591;-44
2022/11/23 05:37:29;;;;;;;;;;;21.80;40.80;;;;;;484268;246;1716;-44
2022/11/23 05:39:31;;;;;;;;;;;21.70;40.90;;;;;;484261;246;1733;-45
2022/11/23 05:41:33;;;;;;;;;;;21.70;41.10;;;;;;484252;246;2137;-44
2022/11/23 05:43:34;;;;;;;;;;;21.70;41.10;;;;;;484206;246;1396;-44
2022/11/23 05:45:35;;;;;;;;;;;21.60;41.20;;;;;;484259;246;1236;-44
2022/11/23 05:47:37;;;;;;;;;;;21.60;41.20;;;;;;484401;246;1239;-44
2022/11/23 05:49:39;;;;;;;;;;;21.60;41.30;;;;;;484495;246;1606;-44
2022/11/23 05:51:40;;;;;;;;;;;21.60;41.40;;;;;;484637;246;1308;-44
2022/11/23 05:53:41;;;;;;;;;;;21.50;41.30;;;;;;484667;246;1372;-41
2022/11/23 05:55:43;;;;;;;;;;;21.50;41.40;;;;;;484363;246;1733;-44
2022/11/23 05:57:45;;;;;;;;;;;21.50;41.40;;;;;;484305;246;1427;-44
2022/11/23 05:59:46;;;;;;;;;;;21.50;41.50;;;;;;484183;246;1345;-44
2022/11/23 06:01:48;;;;;;;;;;;21.40;41.50;;;;;;484091;246;2302;-43
2022/11/23 06:03:49;;;;;;;;;;;21.50;41.60;;;;;;484399;246;1733;-44
2022/11/23 06:05:51;;;;;;;;;;;21.50;41.60;;;;;;484135;246;1229;-45
2022/11/23 06:07:53;;;;;;;;;;;21.40;41.50;;;;;;484254;246;1772;-44
2022/11/23 06:09:54;;;;;;;;;;;21.40;41.50;;;;;;484272;246;1601;-44
2022/11/23 06:11:55;;;;;;;;;;;21.40;41.60;;;;;;484357;246;1680;-44
2022/11/23 06:13:57;;;;;;;;;;;21.40;41.50;;;;;;484355;246;1700;-44
2022/11/23 06:15:58;;;;;;;;;;;21.40;41.50;;;;;;484601;246;1333;-43
2022/11/23 06:18:00;;;;;;;;;;;21.40;41.50;;;;;;484404;246;1791;-44
2022/11/23 06:20:01;;;;;;;;;;;21.40;41.60;;;;;;484185;246;1250;-44
2022/11/23 06:22:03;;;;;;;;;;;21.40;41.60;;;;;;484466;246;2151;-41
2022/11/23 06:24:04;;;;;;;;;;;21.40;41.60;;;;;;484244;246;1229;-41
2022/11/23 06:26:06;;;;;;;;;;;21.40;41.60;;;;;;484265;246;1525;-44
2022/11/23 06:28:07;;;;;;;;;;;21.40;41.70;;;;;;484511;246;1695;-44
2022/11/23 06:30:08;;;;;;;;;;;21.40;41.60;;;;;;484278;246;1355;-44
2022/11/23 06:32:10;;;;;;;;;;;21.40;41.60;;;;;;484226;246;1500;-44
2022/11/23 06:34:11;;;;;;;;;;;21.30;41.60;;;;;;484205;246;1265;-44
2022/11/23 06:36:14;;;;;;;;;;;21.40;41.70;;;;;;484319;246;1651;-45
2022/11/23 06:38:14;;;;;;;;;;;21.40;41.70;;;;;;484074;246;1906;-44
2022/11/23 06:40:15;;;;;;;;;;;21.40;41.70;;;;;;484430;246;2701;-43
2022/11/23 06:42:17;;;;;;;;;;;21.40;41.70;;;;;;484704;246;2207;-44
2022/11/23 06:44:18;;;;;;;;;;;21.40;41.60;;;;;;484227;243;1229;-44
2022/11/23 06:46:19;;;;;;;;;;;21.40;41.60;;;;;;484263;246;1678;-44
2022/11/23 06:48:21;;;;;;;;;;;21.40;41.70;;;;;;484165;246;1260;-41
2022/11/23 06:50:23;;;;;;;;;;;21.30;41.60;;;;;;484203;246;1253;-44
2022/11/23 06:52:25;;;;;;;;;;;21.30;41.70;;;;;;484212;246;1639;-41
2022/11/23 06:54:26;;;;;;;;;;;21.30;41.70;;;;;;484474;246;1221;-43
2022/11/23 06:56:28;;;;;;;;;;;21.40;41.70;;;;;;484317;246;1693;-43
2022/11/23 06:58:29;;;;;;;;;;;21.30;41.70;;;;;;484107;246;1232;-42
2022/11/23 07:00:31;;;;;;;;;;;21.30;41.70;;;;;;484128;246;1606;-44
2022/11/23 07:02:33;;;;;;;;;;;21.30;41.70;;;;;;484008;245;2191;-42
2022/11/23 07:04:35;;;;;;;;;;;21.30;41.70;;;;;;484185;246;3231;-44
2022/11/23 07:06:36;;;;;;;;;;;21.30;41.70;;;;;;483936;246;1311;-44
2022/11/23 07:08:41;;;;;;;;;;;21.30;41.70;;;;;;484097;246;2215;-44
2022/11/23 07:10:39;;;;;;;;;;;21.30;41.80;;;;;;483890;246;1890;-44
2022/11/23 07:12:40;;;;;;;;;;;21.30;41.70;;;;;;483862;246;1348;-44
2022/11/23 07:14:42;;;;;;;;;;;21.30;41.60;;;;;;484172;246;1185;-41
2022/11/23 07:16:43;;;;;;;;;;;21.30;41.70;;;;;;484183;246;1546;-44
2022/11/23 07:18:46;;;;;;;;;;;21.30;41.70;;;;;;484128;246;1342;-41
2022/11/23 07:20:47;;;;;;;;;;;21.30;41.60;;;;;;484087;246;1186;-44
2022/11/23 07:22:48;;;;;;;;;;;21.30;41.60;;;;;;484166;246;2160;-45
2022/11/23 07:24:50;;;;;;;;;;;21.30;41.70;;;;;;484089;246;1809;-44
2022/11/23 07:26:52;;;;;;;;;;;21.30;41.70;;;;;;484209;246;1515;-44
2022/11/23 07:28:54;;;;;;;;;;;21.30;41.60;;;;;;484053;246;1703;-43
2022/11/23 07:30:55;;;;;;;;;;;21.30;41.60;;;;;;484164;246;1760;-44
2022/11/23 07:32:57;;;;;;;;;;;21.30;41.60;;;;;;484125;246;1390;-43
2022/11/23 07:34:58;;;;;;;;;;;21.30;41.60;;;;;;484214;246;1252;-44
2022/11/23 07:37:00;;;;;;;;;;;21.30;41.60;;;;;;484119;246;1324;-44
2022/11/23 07:39:02;;;;;;;;;;;21.30;41.60;;;;;;483925;246;1266;-44
2022/11/23 07:41:03;;;;;;;;;;;21.30;41.60;;;;;;483979;246;2923;-44
2022/11/23 07:43:04;;;;;;;;;;;21.30;41.50;;;;;;483961;246;2188;-44
2022/11/23 07:45:05;;;;;;;;;;;21.30;41.50;;;;;;483712;246;1245;-44
2022/11/23 07:47:07;;;;;;;;;;;21.30;41.50;;;;;;483941;246;1319;-44
2022/11/23 07:49:08;;;;;;;;;;;21.30;41.60;;;;;;483779;246;1399;-44
2022/11/23 07:51:10;;;;;;;;;;;21.30;41.50;;;;;;483798;246;1276;-44
2022/11/23 07:53:11;;;;;;;;;;;21.30;41.50;;;;;;483846;246;1373;-44
2022/11/23 07:55:12;;;;;;;;;;;21.30;41.50;;;;;;483296;246;1544;-43
2022/11/23 07:57:13;;;;;;;;;;;21.30;41.50;;;;;;483622;246;1231;-44
2022/11/23 07:59:15;;;;;;;;;;;21.30;41.50;;;;;;483498;242;1240;-44
2022/11/23 08:01:17;;;;;;;;;;;21.30;41.50;;;;;;483338;246;1210;-44
2022/11/23 08:03:18;;;;;;;;;;;21.30;41.50;;;;;;483544;246;2125;-43
2022/11/23 08:05:19;;;;;;;;;;;21.30;41.50;;;;;;483740;246;1276;-44
2022/11/23 08:07:20;;;;;;;;;;;21.30;41.50;;;;;;483756;246;1281;-43
2022/11/23 08:09:22;;;;;;;;;;;21.30;41.50;;;;;;483564;246;1376;-44
2022/11/23 08:11:23;;;;;;;;;;;21.30;41.50;;;;;;483749;246;1358;-43
2022/11/23 08:13:24;;;;;;;;;;;21.30;41.50;;;;;;483653;246;1502;-44
2022/11/23 08:15:26;;;;;;;;;;;21.30;41.40;;;;;;483783;246;1929;-44
2022/11/23 08:17:27;;;;;;;;;;;21.30;41.50;;;;;;483544;246;1992;-44
2022/11/23 08:19:28;;;;;;;;;;;21.30;41.30;;;;;;483506;242;1557;-44
2022/11/23 08:21:30;;;;;;;;;;;21.40;41.30;;;;;;483709;246;2192;-43
2022/11/23 08:23:31;;;;;;;;;;;21.40;41.20;;;;;;483759;246;1395;-44
2022/11/23 08:25:32;;;;;;;;;;;21.40;41.10;;;;;;483868;246;1295;-43
2022/11/23 08:27:34;;;;;;;;;;;21.40;41.10;;;;;;483315;246;1593;-44
2022/11/23 08:29:35;;;;;;;;;;;21.50;41.00;;;;;;483576;246;1711;-43
2022/11/23 08:31:36;;;;;;;;;;;21.50;41.10;;;;;;483703;246;1225;-44
2022/11/23 08:33:38;;;;;;;;;;;21.50;41.00;;;;;;483730;246;1369;-44
2022/11/23 08:35:39;;;;;;;;;;;21.50;41.00;;;;;;483723;246;1234;-44
2022/11/23 08:37:41;;;;;;;;;;;21.50;40.90;;;;;;483570;246;1256;-44
2022/11/23 08:39:42;;;;;;;;;;;21.60;40.90;;;;;;483839;246;1224;-44
2022/11/23 08:41:43;;;;;;;;;;;21.60;40.90;;;;;;483605;246;2161;-44
2022/11/23 08:43:45;;;;;;;;;;;21.60;40.80;;;;;;483522;246;1236;-44
2022/11/23 08:45:46;;;;;;;;;;;21.60;40.80;;;;;;483835;246;1182;-44
2022/11/23 08:47:47;;;;;;;;;;;21.60;40.90;;;;;;483630;246;1390;-44
2022/11/23 08:49:49;;;;;;;;;;;21.60;40.80;;;;;;483710;246;1307;-43
2022/11/23 08:51:50;;;;;;;;;;;21.60;40.80;;;;;;483770;246;1272;-44
2022/11/23 08:53:51;;;;;;;;;;;21.60;40.80;;;;;;483668;246;1205;-44
2022/11/23 08:55:53;;;;;;;;;;;21.60;40.70;;;;;;483724;246;1412;-44
2022/11/23 08:57:54;;;;;;;;;;;21.60;40.80;;;;;;483563;246;1723;-43
2022/11/23 08:59:55;;;;;;;;;;;21.70;40.80;;;;;;483777;246;1234;-44
2022/11/23 09:01:57;;;;;;;;;;;21.60;40.70;;;;;;484111;246;2192;-44
2022/11/23 09:03:59;;;;;;;;;;;21.60;40.70;;;;;;483466;246;1274;-43
2022/11/23 09:06:00;;;;;;;;;;;21.60;40.70;;;;;;483750;246;1242;-44
2022/11/23 09:08:01;;;;;;;;;;;21.70;40.70;;;;;;483683;246;1230;-44
2022/11/23 09:10:02;;;;;;;;;;;21.60;40.60;;;;;;483511;246;1267;-44
2022/11/23 09:12:04;;;;;;;;;;;21.60;40.70;;;;;;483386;246;1276;-43
2022/11/23 09:14:05;;;;;;;;;;;21.70;40.70;;;;;;483647;246;1197;-44
2022/11/23 09:16:07;;;;;;;;;;;21.70;40.60;;;;;;483811;246;1377;-44
2022/11/23 09:18:08;;;;;;;;;;;21.70;40.60;;;;;;483733;246;1340;-43
2022/11/23 09:20:09;;;;;;;;;;;21.70;40.50;;;;;;483626;246;1371;-43
2022/11/23 09:22:10;;;;;;;;;;;21.70;40.60;;;;;;483515;246;2406;-44
2022/11/23 09:24:12;;;;;;;;;;;21.70;40.60;;;;;;483706;246;1249;-44
2022/11/23 09:26:14;;;;;;;;;;;21.70;40.60;;;;;;483802;246;1212;-43
2022/11/23 09:28:14;;;;;;;;;;;21.80;40.50;;;;;;483589;246;2073;-44
2022/11/23 09:30:16;;;;;;;;;;;21.90;40.30;;;;;;483320;246;1244;-44
2022/11/23 09:32:17;;;;;;;;;;;22.10;40.00;;;;;;483550;246;1283;-44
2022/11/23 09:34:18;;;;;;;;;;;22.20;39.70;;;;;;483500;242;1789;-44
2022/11/23 09:36:21;;;;;;;;;;;22.20;39.60;;;;;;483445;246;1727;-44
2022/11/23 09:38:22;;;;;;;;;;;22.20;39.60;;;;;;483231;246;1540;-44
2022/11/23 09:40:23;;;;;;;;;;;22.10;39.70;;;;;;483306;246;1674;-44
2022/11/23 09:42:24;;;;;;;;;;;22.10;39.90;;;;;;483722;246;2204;-43
2022/11/23 09:44:25;;;;;;;;;;;22.00;40.00;;;;;;483287;246;1331;-44
2022/11/23 09:46:27;;;;;;;;;;;22.00;40.00;;;;;;483539;246;1466;-43
2022/11/23 09:48:28;;;;;;;;;;;22.00;40.10;;;;;;483099;246;1323;-44
2022/11/23 09:50:29;;;;;;;;;;;22.00;40.20;;;;;;483846;246;1229;-44
2022/11/23 09:52:31;;;;;;;;;;;21.90;40.20;;;;;;483452;246;1646;-44
2022/11/23 09:54:32;;;;;;;;;;;21.90;40.20;;;;;;483782;246;1598;-44
2022/11/23 09:56:33;;;;;;;;;;;21.90;40.20;;;;;;483562;246;1651;-44
2022/11/23 09:58:35;;;;;;;;;;;21.90;40.20;;;;;;483785;246;1314;-43
2022/11/23 10:00:36;;;;;;;;;;;21.90;40.30;;;;;;483739;246;1612;-43
2022/11/23 10:02:37;;;;;;;;;;;21.90;40.20;;;;;;483713;246;2207;-44
2022/11/23 10:04:39;;;;;;;;;;;21.90;40.20;;;;;;483689;246;1705;-44
2022/11/23 10:06:40;;;;;;;;;;;21.90;40.10;;;;;;483837;246;1292;-44
2022/11/23 10:08:44;;;;;;;;;;;21.90;40.20;;;;;;483833;246;1246;-44
2022/11/23 10:10:43;;;;;;;;;;;21.90;40.20;;;;;;483731;246;1930;-44
2022/11/23 10:12:44;;;;;;;;;;;21.90;40.20;;;;;;483810;246;1290;-44
2022/11/23 10:14:46;;;;;;;;;;;21.90;40.10;;;;;;483770;246;1465;-44
2022/11/23 10:16:47;;;;;;;;;;;21.90;40.20;;;;;;483875;246;1235;-44
2022/11/23 10:18:48;;;;;;;;;;;21.90;40.30;;;;;;483841;246;1752;-44
2022/11/23 10:20:50;;;;;;;;;;;21.90;40.20;;;;;;483839;246;1217;-44
2022/11/23 10:22:51;;;;;;;;;;;21.90;40.20;;;;;;483317;246;2200;-43
2022/11/23 10:24:53;;;;;;;;;;;21.90;40.20;;;;;;483349;246;1281;-43
2022/11/23 10:26:54;;;;;;;;;;;22.00;40.20;;;;;;483463;246;1274;-43
2022/11/23 10:28:55;;;;;;;;;;;22.00;40.20;;;;;;483423;242;1218;-44
2022/11/23 10:30:57;;;;;;;;;;;21.90;40.20;;;;;;483677;246;1199;-44
2022/11/23 10:32:58;;;;;;;;;;;21.90;40.10;;;;;;483084;246;1354;-44
2022/11/23 10:35:00;;;;;;;;;;;21.90;40.20;;;;;;483696;246;1273;-44
2022/11/23 10:37:01;;;;;;;;;;;21.90;40.20;;;;;;483488;246;1240;-44
2022/11/23 10:39:02;;;;;;;;;;;21.90;40.20;;;;;;483487;246;1316;-44
2022/11/23 10:41:04;;;;;;;;;;;21.90;40.20;;;;;;483480;246;1410;-44
2022/11/23 10:43:05;;;;;;;;;;;21.90;40.20;;;;;;483583;246;2191;-43
2022/11/23 10:45:06;;;;;;;;;;;21.90;40.20;;;;;;483492;246;1206;-44
2022/11/23 10:47:08;;;;;;;;;;;21.90;40.20;;;;;;483686;246;1277;-44
2022/11/23 10:49:09;;;;;;;;;;;21.90;40.10;;;;;;483779;246;1253;-43
2022/11/23 10:51:10;;;;;;;;;;;22.00;40.10;;;;;;483719;246;1800;-44
2022/11/23 10:53:12;;;;;;;;;;;22.00;40.10;;;;;;483690;246;1234;-44
2022/11/23 10:55:13;;;;;;;;;;;21.90;40.10;;;;;;483902;246;1293;-43
2022/11/23 10:57:14;;;;;;;;;;;21.90;40.10;;;;;;483881;246;1232;-43
2022/11/23 10:59:16;;;;;;;;;;;21.90;40.10;;;;;;483602;246;1565;-44
2022/11/23 11:01:17;;;;;;;;;;;22.00;40.10;;;;;;483663;246;1150;-43
2022/11/23 11:03:18;;;;;;;;;;;22.00;40.00;;;;;;483575;246;2204;-44
2022/11/23 11:05:20;;;;;;;;;;;22.00;40.00;;;;;;482856;246;1341;-44
2022/11/23 11:07:22;;;;;;;;;;;22.00;40.00;;;;;;483741;246;1953;-44
2022/11/23 11:09:23;;;;;;;;;;;22.00;40.00;;;;;;483530;246;1400;-44
2022/11/23 11:11:24;;;;;;;;;;;22.00;40.00;;;;;;483892;246;1457;-44
2022/11/23 11:13:25;;;;;;;;;;;22.00;40.00;;;;;;483555;246;1408;-43
2022/11/23 11:15:28;;;;;;;;;;;21.90;39.90;;;;;;483671;246;1421;-44
2022/11/23 11:17:28;;;;;;;;;;;22.00;40.00;;;;;;483272;246;1393;-44
2022/11/23 11:19:29;;;;;;;;;;;22.00;39.90;;;;;;483680;246;1238;-44
2022/11/23 11:21:31;;;;;;;;;;;22.00;39.80;;;;;;483691;246;1175;-44
2022/11/23 11:23:32;;;;;;;;;;;22.00;39.90;;;;;;483670;246;2191;-44
2022/11/23 11:25:33;;;;;;;;;;;22.00;39.90;;;;;;483962;246;1210;-44
2022/11/23 11:27:35;;;;;;;;;;;22.00;40.00;;;;;;483778;246;1348;-43
2022/11/23 11:29:36;;;;;;;;;;;22.00;39.90;;;;;;483647;246;1291;-44
2022/11/23 11:31:37;;;;;;;;;;;22.00;39.90;;;;;;483764;246;1348;-44
2022/11/23 11:33:39;;;;;;;;;;;22.00;39.80;;;;;;483631;246;1204;-43
2022/11/23 11:35:40;;;;;;;;;;;22.00;39.80;;;;;;483787;246;1229;-44
2022/11/23 11:37:41;;;;;;;;;;;22.00;39.90;;;;;;483792;246;1251;-44
2022/11/23 11:39:43;;;;;;;;;;;22.00;39.80;;;;;;483890;246;1243;-44
2022/11/23 11:41:44;;;;;;;;;;;21.90;39.80;;;;;;483893;246;1553;-44
2022/11/23 11:43:45;;;;;;;;;;;22.00;39.90;;;;;;483669;246;2504;-44
2022/11/23 11:45:47;;;;;;;;;;;22.10;39.70;;;;;;483537;242;1229;-43
2022/11/23 11:47:48;;;;;;;;;;;22.20;39.60;;;;;;483832;246;1187;-44
2022/11/23 11:49:49;;;;;;;;;;;22.10;39.50;;;;;;483789;246;1585;-44
2022/11/23 11:51:51;;;;;;;;;;;22.10;39.60;;;;;;483612;246;1347;-44
2022/11/23 11:53:52;;;;;;;;;;;22.10;39.60;;;;;;483743;246;1695;-44
2022/11/23 11:55:53;;;;;;;;;;;22.10;39.60;;;;;;483570;246;1612;-43
2022/11/23 11:57:55;;;;;;;;;;;22.10;39.60;;;;;;483677;246;1543;-44